sensor_id;sensor_type;location;lat;lon;timestamp;P1;durP1;ratioP1;P2;durP2;ratioP2
15155;SDS011;7678;50.058;8.306;2024-03-06T00:01:22;9.17;;;8.00;;
15155;SDS011;7678;50.058;8.306;2024-03-06T00:03:50;11.30;;;8.27;;
15155;SDS011;7678;50.058;8.306;2024-03-06T00:06:20;12.27;;;8.97;;
15155;SDS011;7678;50.058;8.306;2024-03-06T00:08:48;11.33;;;8.33;;
15155;SDS011;7678;50.058;8.306;2024-03-06T00:11:17;10.47;;;8.57;;
15155;SDS011;7678;50.058;8.306;2024-03-06T00:13:46;11.07;;;7.87;;
15155;SDS011;7678;50.058;8.306;2024-03-06T00:16:14;11.43;;;8.73;;
15155;SDS011;7678;50.058;8.306;2024-03-06T00:18:45;9.80;;;7.90;;
15155;SDS011;7678;50.058;8.306;2024-03-06T00:21:14;10.00;;;8.30;;
15155;SDS011;7678;50.058;8.306;2024-03-06T00:23:44;9.77;;;8.20;;
15155;SDS011;7678;50.058;8.306;2024-03-06T00:26:13;10.90;;;8.60;;
15155;SDS011;7678;50.058;8.306;2024-03-06T00:28:41;10.63;;;8.70;;
15155;SDS011;7678;50.058;8.306;2024-03-06T00:31:11;10.70;;;8.20;;
15155;SDS011;7678;50.058;8.306;2024-03-06T00:33:39;11.33;;;8.60;;
15155;SDS011;7678;50.058;8.306;2024-03-06T00:36:08;11.20;;;9.03;;
15155;SDS011;7678;50.058;8.306;2024-03-06T00:38:37;9.97;;;8.50;;
15155;SDS011;7678;50.058;8.306;2024-03-06T00:41:07;10.17;;;8.40;;
15155;SDS011;7678;50.058;8.306;2024-03-06T00:43:35;11.57;;;8.40;;
15155;SDS011;7678;50.058;8.306;2024-03-06T00:46:04;9.80;;;8.43;;
15155;SDS011;7678;50.058;8.306;2024-03-06T00:48:34;9.90;;;8.60;;
15155;SDS011;7678;50.058;8.306;2024-03-06T00:51:06;9.17;;;7.50;;
15155;SDS011;7678;50.058;8.306;2024-03-06T00:53:34;11.20;;;7.53;;
15155;SDS011;7678;50.058;8.306;2024-03-06T00:56:03;10.80;;;7.70;;
15155;SDS011;7678;50.058;8.306;2024-03-06T00:58:35;10.53;;;8.30;;
15155;SDS011;7678;50.058;8.306;2024-03-06T01:01:03;9.47;;;6.73;;
15155;SDS011;7678;50.058;8.306;2024-03-06T01:03:32;11.60;;;7.47;;
15155;SDS011;7678;50.058;8.306;2024-03-06T01:06:00;6.60;;;6.00;;
15155;SDS011;7678;50.058;8.306;2024-03-06T01:08:28;8.10;;;6.57;;
15155;SDS011;7678;50.058;8.306;2024-03-06T01:10:58;6.70;;;6.00;;
15155;SDS011;7678;50.058;8.306;2024-03-06T01:13:27;7.13;;;5.70;;
15155;SDS011;7678;50.058;8.306;2024-03-06T01:15:56;7.50;;;5.83;;
15155;SDS011;7678;50.058;8.306;2024-03-06T01:18:24;7.23;;;5.67;;
15155;SDS011;7678;50.058;8.306;2024-03-06T01:20:53;5.90;;;5.23;;
15155;SDS011;7678;50.058;8.306;2024-03-06T01:23:21;6.63;;;5.20;;
15155;SDS011;7678;50.058;8.306;2024-03-06T01:25:50;5.80;;;5.20;;
15155;SDS011;7678;50.058;8.306;2024-03-06T01:28:18;8.57;;;5.83;;
15155;SDS011;7678;50.058;8.306;2024-03-06T01:30:48;8.30;;;5.80;;
15155;SDS011;7678;50.058;8.306;2024-03-06T01:33:16;8.50;;;5.77;;
15155;SDS011;7678;50.058;8.306;2024-03-06T01:35:45;8.93;;;5.77;;
15155;SDS011;7678;50.058;8.306;2024-03-06T01:38:13;9.43;;;6.43;;
15155;SDS011;7678;50.058;8.306;2024-03-06T01:40:43;6.37;;;4.80;;
15155;SDS011;7678;50.058;8.306;2024-03-06T01:43:21;6.23;;;5.47;;
15155;SDS011;7678;50.058;8.306;2024-03-06T01:45:52;8.57;;;5.63;;
15155;SDS011;7678;50.058;8.306;2024-03-06T01:48:21;7.67;;;5.13;;
15155;SDS011;7678;50.058;8.306;2024-03-06T01:50:52;7.43;;;5.13;;
15155;SDS011;7678;50.058;8.306;2024-03-06T01:53:22;7.63;;;5.30;;
15155;SDS011;7678;50.058;8.306;2024-03-06T01:55:51;6.23;;;5.63;;
15155;SDS011;7678;50.058;8.306;2024-03-06T01:58:20;8.73;;;5.50;;
15155;SDS011;7678;50.058;8.306;2024-03-06T02:00:49;6.30;;;5.00;;
15155;SDS011;7678;50.058;8.306;2024-03-06T02:03:21;6.93;;;5.03;;
15155;SDS011;7678;50.058;8.306;2024-03-06T02:05:52;6.00;;;5.40;;
15155;SDS011;7678;50.058;8.306;2024-03-06T02:08:25;5.67;;;4.97;;
15155;SDS011;7678;50.058;8.306;2024-03-06T02:10:54;6.67;;;5.27;;
15155;SDS011;7678;50.058;8.306;2024-03-06T02:13:23;6.57;;;5.10;;
15155;SDS011;7678;50.058;8.306;2024-03-06T02:15:55;7.03;;;5.33;;
15155;SDS011;7678;50.058;8.306;2024-03-06T02:18:23;6.37;;;5.70;;
15155;SDS011;7678;50.058;8.306;2024-03-06T02:20:53;8.77;;;6.00;;
15155;SDS011;7678;50.058;8.306;2024-03-06T02:23:22;15.40;;;6.17;;
15155;SDS011;7678;50.058;8.306;2024-03-06T02:25:50;7.13;;;6.43;;
15155;SDS011;7678;50.058;8.306;2024-03-06T02:28:18;6.47;;;5.63;;
15155;SDS011;7678;50.058;8.306;2024-03-06T02:30:49;7.07;;;6.37;;
15155;SDS011;7678;50.058;8.306;2024-03-06T02:33:18;6.60;;;5.87;;
15155;SDS011;7678;50.058;8.306;2024-03-06T02:35:47;6.10;;;5.43;;
15155;SDS011;7678;50.058;8.306;2024-03-06T02:38:17;6.90;;;5.83;;
15155;SDS011;7678;50.058;8.306;2024-03-06T02:40:45;6.57;;;5.83;;
15155;SDS011;7678;50.058;8.306;2024-03-06T02:43:14;6.03;;;5.40;;
15155;SDS011;7678;50.058;8.306;2024-03-06T02:45:43;7.47;;;6.10;;
15155;SDS011;7678;50.058;8.306;2024-03-06T02:48:11;7.83;;;5.50;;
15155;SDS011;7678;50.058;8.306;2024-03-06T02:50:39;6.97;;;5.93;;
15155;SDS011;7678;50.058;8.306;2024-03-06T02:53:08;7.23;;;5.53;;
15155;SDS011;7678;50.058;8.306;2024-03-06T02:55:38;6.03;;;5.10;;
15155;SDS011;7678;50.058;8.306;2024-03-06T02:58:12;6.13;;;5.30;;
15155;SDS011;7678;50.058;8.306;2024-03-06T03:00:40;7.53;;;5.33;;
15155;SDS011;7678;50.058;8.306;2024-03-06T03:03:08;6.80;;;5.33;;
15155;SDS011;7678;50.058;8.306;2024-03-06T03:05:38;6.37;;;5.07;;
15155;SDS011;7678;50.058;8.306;2024-03-06T03:08:08;9.03;;;5.70;;
15155;SDS011;7678;50.058;8.306;2024-03-06T03:10:38;6.03;;;4.90;;
15155;SDS011;7678;50.058;8.306;2024-03-06T03:13:06;6.83;;;5.07;;
15155;SDS011;7678;50.058;8.306;2024-03-06T03:15:37;7.33;;;5.27;;
15155;SDS011;7678;50.058;8.306;2024-03-06T03:18:07;7.03;;;5.40;;
15155;SDS011;7678;50.058;8.306;2024-03-06T03:20:36;5.73;;;5.13;;
15155;SDS011;7678;50.058;8.306;2024-03-06T03:23:04;6.50;;;5.53;;
15155;SDS011;7678;50.058;8.306;2024-03-06T03:25:39;5.93;;;5.07;;
15155;SDS011;7678;50.058;8.306;2024-03-06T03:28:08;7.33;;;5.63;;
15155;SDS011;7678;50.058;8.306;2024-03-06T03:30:36;7.17;;;5.43;;
15155;SDS011;7678;50.058;8.306;2024-03-06T03:33:05;7.27;;;5.50;;
15155;SDS011;7678;50.058;8.306;2024-03-06T03:35:33;5.93;;;5.10;;
15155;SDS011;7678;50.058;8.306;2024-03-06T03:38:01;6.83;;;5.30;;
15155;SDS011;7678;50.058;8.306;2024-03-06T03:40:31;6.20;;;5.37;;
15155;SDS011;7678;50.058;8.306;2024-03-06T03:43:01;6.60;;;5.90;;
15155;SDS011;7678;50.058;8.306;2024-03-06T03:45:33;6.67;;;5.70;;
15155;SDS011;7678;50.058;8.306;2024-03-06T03:48:02;6.77;;;5.73;;
15155;SDS011;7678;50.058;8.306;2024-03-06T03:50:31;7.63;;;5.33;;
15155;SDS011;7678;50.058;8.306;2024-03-06T03:53:00;5.80;;;5.10;;
15155;SDS011;7678;50.058;8.306;2024-03-06T03:55:28;6.13;;;5.53;;
15155;SDS011;7678;50.058;8.306;2024-03-06T03:57:57;7.20;;;5.60;;
15155;SDS011;7678;50.058;8.306;2024-03-06T04:00:26;7.43;;;5.63;;
15155;SDS011;7678;50.058;8.306;2024-03-06T04:02:54;7.00;;;5.27;;
15155;SDS011;7678;50.058;8.306;2024-03-06T04:05:23;8.90;;;6.43;;
15155;SDS011;7678;50.058;8.306;2024-03-06T04:07:52;9.00;;;6.00;;
15155;SDS011;7678;50.058;8.306;2024-03-06T04:10:20;7.73;;;6.43;;
15155;SDS011;7678;50.058;8.306;2024-03-06T04:12:49;6.80;;;6.10;;
15155;SDS011;7678;50.058;8.306;2024-03-06T04:15:17;9.33;;;6.27;;
15155;SDS011;7678;50.058;8.306;2024-03-06T04:17:47;8.30;;;6.70;;
15155;SDS011;7678;50.058;8.306;2024-03-06T04:20:16;9.53;;;7.07;;
15155;SDS011;7678;50.058;8.306;2024-03-06T04:22:45;8.30;;;7.03;;
15155;SDS011;7678;50.058;8.306;2024-03-06T04:25:14;8.97;;;7.27;;
15155;SDS011;7678;50.058;8.306;2024-03-06T04:27:42;9.07;;;7.63;;
15155;SDS011;7678;50.058;8.306;2024-03-06T04:30:11;15.80;;;8.27;;
15155;SDS011;7678;50.058;8.306;2024-03-06T04:32:40;10.30;;;7.17;;
15155;SDS011;7678;50.058;8.306;2024-03-06T04:35:10;9.57;;;6.43;;
15155;SDS011;7678;50.058;8.306;2024-03-06T04:37:40;8.43;;;6.17;;
15155;SDS011;7678;50.058;8.306;2024-03-06T04:40:08;8.40;;;6.83;;
15155;SDS011;7678;50.058;8.306;2024-03-06T04:42:37;9.33;;;6.40;;
15155;SDS011;7678;50.058;8.306;2024-03-06T04:45:09;8.57;;;6.40;;
15155;SDS011;7678;50.058;8.306;2024-03-06T04:47:39;7.87;;;6.10;;
15155;SDS011;7678;50.058;8.306;2024-03-06T04:50:08;9.43;;;6.13;;
15155;SDS011;7678;50.058;8.306;2024-03-06T04:52:39;9.53;;;6.90;;
15155;SDS011;7678;50.058;8.306;2024-03-06T04:55:08;6.43;;;5.47;;
15155;SDS011;7678;50.058;8.306;2024-03-06T04:57:43;9.60;;;5.97;;
15155;SDS011;7678;50.058;8.306;2024-03-06T05:00:13;10.13;;;6.37;;
15155;SDS011;7678;50.058;8.306;2024-03-06T05:02:41;9.47;;;6.50;;
15155;SDS011;7678;50.058;8.306;2024-03-06T05:05:29;9.47;;;6.40;;
15155;SDS011;7678;50.058;8.306;2024-03-06T05:08:14;10.27;;;7.00;;
15155;SDS011;7678;50.058;8.306;2024-03-06T05:11:00;10.43;;;7.80;;
15155;SDS011;7678;50.058;8.306;2024-03-06T05:13:46;10.47;;;7.00;;
15155;SDS011;7678;50.058;8.306;2024-03-06T05:16:42;9.57;;;7.10;;
15155;SDS011;7678;50.058;8.306;2024-03-06T05:19:28;8.33;;;6.23;;
15155;SDS011;7678;50.058;8.306;2024-03-06T05:22:17;7.60;;;6.30;;
15155;SDS011;7678;50.058;8.306;2024-03-06T05:25:02;8.87;;;6.00;;
15155;SDS011;7678;50.058;8.306;2024-03-06T05:27:50;8.03;;;6.07;;
15155;SDS011;7678;50.058;8.306;2024-03-06T05:30:36;6.67;;;6.03;;
15155;SDS011;7678;50.058;8.306;2024-03-06T05:33:22;10.30;;;6.20;;
15155;SDS011;7678;50.058;8.306;2024-03-06T05:36:07;7.77;;;5.67;;
15155;SDS011;7678;50.058;8.306;2024-03-06T05:38:55;6.80;;;5.43;;
15155;SDS011;7678;50.058;8.306;2024-03-06T05:41:41;7.60;;;5.30;;
15155;SDS011;7678;50.058;8.306;2024-03-06T05:44:26;9.50;;;6.27;;
15155;SDS011;7678;50.058;8.306;2024-03-06T05:47:12;7.90;;;6.00;;
15155;SDS011;7678;50.058;8.306;2024-03-06T05:49:58;7.20;;;6.07;;
15155;SDS011;7678;50.058;8.306;2024-03-06T05:52:44;8.60;;;6.30;;
15155;SDS011;7678;50.058;8.306;2024-03-06T05:55:32;8.23;;;6.33;;
15155;SDS011;7678;50.058;8.306;2024-03-06T05:58:17;9.57;;;7.00;;
15155;SDS011;7678;50.058;8.306;2024-03-06T06:00:47;7.67;;;6.23;;
15155;SDS011;7678;50.058;8.306;2024-03-06T06:03:16;7.20;;;6.03;;
15155;SDS011;7678;50.058;8.306;2024-03-06T06:05:44;8.90;;;6.13;;
15155;SDS011;7678;50.058;8.306;2024-03-06T06:08:13;9.23;;;6.77;;
15155;SDS011;7678;50.058;8.306;2024-03-06T06:10:43;9.30;;;6.50;;
15155;SDS011;7678;50.058;8.306;2024-03-06T06:13:11;10.27;;;6.73;;
15155;SDS011;7678;50.058;8.306;2024-03-06T06:15:41;10.10;;;6.57;;
15155;SDS011;7678;50.058;8.306;2024-03-06T06:18:09;12.53;;;7.23;;
15155;SDS011;7678;50.058;8.306;2024-03-06T06:20:38;9.53;;;6.67;;
15155;SDS011;7678;50.058;8.306;2024-03-06T06:23:11;11.47;;;6.97;;
15155;SDS011;7678;50.058;8.306;2024-03-06T06:25:39;8.90;;;7.73;;
15155;SDS011;7678;50.058;8.306;2024-03-06T06:28:09;10.90;;;7.00;;
15155;SDS011;7678;50.058;8.306;2024-03-06T06:30:37;9.20;;;7.10;;
15155;SDS011;7678;50.058;8.306;2024-03-06T06:33:06;8.67;;;6.37;;
15155;SDS011;7678;50.058;8.306;2024-03-06T06:35:34;8.83;;;6.10;;
15155;SDS011;7678;50.058;8.306;2024-03-06T06:38:03;9.10;;;6.03;;
15155;SDS011;7678;50.058;8.306;2024-03-06T06:40:31;7.67;;;6.40;;
15155;SDS011;7678;50.058;8.306;2024-03-06T06:43:00;10.00;;;7.70;;
15155;SDS011;7678;50.058;8.306;2024-03-06T06:45:29;9.70;;;7.90;;
15155;SDS011;7678;50.058;8.306;2024-03-06T06:47:58;9.67;;;7.60;;
15155;SDS011;7678;50.058;8.306;2024-03-06T06:50:26;9.10;;;7.10;;
15155;SDS011;7678;50.058;8.306;2024-03-06T06:52:56;10.17;;;6.37;;
15155;SDS011;7678;50.058;8.306;2024-03-06T06:55:26;9.47;;;6.93;;
15155;SDS011;7678;50.058;8.306;2024-03-06T06:57:54;10.30;;;6.93;;
15155;SDS011;7678;50.058;8.306;2024-03-06T07:00:23;9.03;;;7.10;;
15155;SDS011;7678;50.058;8.306;2024-03-06T07:02:53;9.00;;;7.57;;
15155;SDS011;7678;50.058;8.306;2024-03-06T07:05:22;10.60;;;7.07;;
15155;SDS011;7678;50.058;8.306;2024-03-06T07:07:50;8.37;;;7.30;;
15155;SDS011;7678;50.058;8.306;2024-03-06T07:10:20;13.47;;;8.37;;
15155;SDS011;7678;50.058;8.306;2024-03-06T07:12:50;11.60;;;8.53;;
15155;SDS011;7678;50.058;8.306;2024-03-06T07:15:20;11.03;;;7.60;;
15155;SDS011;7678;50.058;8.306;2024-03-06T07:17:48;9.80;;;7.63;;
15155;SDS011;7678;50.058;8.306;2024-03-06T07:20:21;10.43;;;7.77;;
15155;SDS011;7678;50.058;8.306;2024-03-06T07:22:50;13.50;;;11.33;;
15155;SDS011;7678;50.058;8.306;2024-03-06T07:25:18;12.97;;;10.47;;
15155;SDS011;7678;50.058;8.306;2024-03-06T07:27:47;14.00;;;9.37;;
15155;SDS011;7678;50.058;8.306;2024-03-06T07:30:15;11.60;;;9.27;;
15155;SDS011;7678;50.058;8.306;2024-03-06T07:32:44;11.13;;;9.10;;
15155;SDS011;7678;50.058;8.306;2024-03-06T07:35:13;10.30;;;8.20;;
15155;SDS011;7678;50.058;8.306;2024-03-06T07:37:42;13.73;;;8.93;;
15155;SDS011;7678;50.058;8.306;2024-03-06T07:40:12;10.63;;;8.70;;
15155;SDS011;7678;50.058;8.306;2024-03-06T07:42:41;11.90;;;8.40;;
15155;SDS011;7678;50.058;8.306;2024-03-06T07:45:09;10.60;;;8.73;;
15155;SDS011;7678;50.058;8.306;2024-03-06T07:47:38;12.33;;;8.23;;
15155;SDS011;7678;50.058;8.306;2024-03-06T07:50:08;11.90;;;9.30;;
15155;SDS011;7678;50.058;8.306;2024-03-06T07:52:38;11.27;;;9.23;;
15155;SDS011;7678;50.058;8.306;2024-03-06T07:55:08;12.83;;;9.43;;
15155;SDS011;7678;50.058;8.306;2024-03-06T07:57:37;14.03;;;9.27;;
15155;SDS011;7678;50.058;8.306;2024-03-06T08:00:05;15.37;;;11.97;;
15155;SDS011;7678;50.058;8.306;2024-03-06T08:02:41;21.20;;;12.97;;
15155;SDS011;7678;50.058;8.306;2024-03-06T08:05:10;14.37;;;11.13;;
15155;SDS011;7678;50.058;8.306;2024-03-06T08:07:40;16.47;;;11.60;;
15155;SDS011;7678;50.058;8.306;2024-03-06T08:10:10;12.33;;;9.33;;
15155;SDS011;7678;50.058;8.306;2024-03-06T08:12:40;11.83;;;9.40;;
15155;SDS011;7678;50.058;8.306;2024-03-06T08:15:10;10.77;;;9.37;;
15155;SDS011;7678;50.058;8.306;2024-03-06T08:17:40;11.37;;;9.00;;
15155;SDS011;7678;50.058;8.306;2024-03-06T08:20:11;11.37;;;8.30;;
15155;SDS011;7678;50.058;8.306;2024-03-06T08:22:40;11.23;;;8.70;;
15155;SDS011;7678;50.058;8.306;2024-03-06T08:25:11;10.40;;;8.63;;
15155;SDS011;7678;50.058;8.306;2024-03-06T08:27:40;11.97;;;8.00;;
15155;SDS011;7678;50.058;8.306;2024-03-06T08:30:10;11.07;;;7.57;;
15155;SDS011;7678;50.058;8.306;2024-03-06T08:32:39;10.30;;;7.53;;
15155;SDS011;7678;50.058;8.306;2024-03-06T08:35:11;9.97;;;7.73;;
15155;SDS011;7678;50.058;8.306;2024-03-06T08:37:44;11.30;;;8.23;;
15155;SDS011;7678;50.058;8.306;2024-03-06T08:40:14;11.67;;;8.53;;
15155;SDS011;7678;50.058;8.306;2024-03-06T08:42:44;11.67;;;9.67;;
15155;SDS011;7678;50.058;8.306;2024-03-06T08:45:14;17.43;;;12.20;;
15155;SDS011;7678;50.058;8.306;2024-03-06T08:47:44;15.83;;;12.67;;
15155;SDS011;7678;50.058;8.306;2024-03-06T08:50:14;19.30;;;14.23;;
15155;SDS011;7678;50.058;8.306;2024-03-06T08:52:46;25.30;;;16.67;;
15155;SDS011;7678;50.058;8.306;2024-03-06T08:55:16;27.97;;;21.23;;
15155;SDS011;7678;50.058;8.306;2024-03-06T08:57:45;20.63;;;15.50;;
15155;SDS011;7678;50.058;8.306;2024-03-06T09:00:14;21.60;;;16.00;;
15155;SDS011;7678;50.058;8.306;2024-03-06T09:02:44;20.13;;;16.10;;
15155;SDS011;7678;50.058;8.306;2024-03-06T09:05:12;20.97;;;16.67;;
15155;SDS011;7678;50.058;8.306;2024-03-06T09:07:41;20.50;;;15.37;;
15155;SDS011;7678;50.058;8.306;2024-03-06T09:10:11;19.20;;;15.13;;
15155;SDS011;7678;50.058;8.306;2024-03-06T09:12:41;22.83;;;17.20;;
15155;SDS011;7678;50.058;8.306;2024-03-06T09:15:10;24.37;;;20.00;;
15155;SDS011;7678;50.058;8.306;2024-03-06T09:17:42;23.73;;;19.33;;
15155;SDS011;7678;50.058;8.306;2024-03-06T09:20:13;23.03;;;15.20;;
15155;SDS011;7678;50.058;8.306;2024-03-06T09:22:42;19.40;;;16.10;;
15155;SDS011;7678;50.058;8.306;2024-03-06T09:25:11;30.43;;;21.53;;
15155;SDS011;7678;50.058;8.306;2024-03-06T09:27:43;19.93;;;15.80;;
15155;SDS011;7678;50.058;8.306;2024-03-06T09:30:14;25.10;;;16.77;;
15155;SDS011;7678;50.058;8.306;2024-03-06T09:32:43;24.10;;;16.83;;
15155;SDS011;7678;50.058;8.306;2024-03-06T09:35:11;22.60;;;17.87;;
15155;SDS011;7678;50.058;8.306;2024-03-06T09:37:44;20.93;;;16.70;;
15155;SDS011;7678;50.058;8.306;2024-03-06T09:40:19;17.60;;;12.53;;
15155;SDS011;7678;50.058;8.306;2024-03-06T09:42:50;16.73;;;11.80;;
15155;SDS011;7678;50.058;8.306;2024-03-06T09:45:19;16.67;;;13.70;;
15155;SDS011;7678;50.058;8.306;2024-03-06T09:47:49;16.30;;;13.20;;
15155;SDS011;7678;50.058;8.306;2024-03-06T09:50:22;18.13;;;13.40;;
15155;SDS011;7678;50.058;8.306;2024-03-06T09:52:53;15.63;;;11.33;;
15155;SDS011;7678;50.058;8.306;2024-03-06T09:55:23;19.57;;;15.30;;
15155;SDS011;7678;50.058;8.306;2024-03-06T09:57:55;15.67;;;12.00;;
15155;SDS011;7678;50.058;8.306;2024-03-06T10:00:24;17.03;;;11.47;;
15155;SDS011;7678;50.058;8.306;2024-03-06T10:02:54;13.03;;;11.17;;
15155;SDS011;7678;50.058;8.306;2024-03-06T10:05:28;13.77;;;11.10;;
15155;SDS011;7678;50.058;8.306;2024-03-06T10:07:58;12.17;;;10.47;;
15155;SDS011;7678;50.058;8.306;2024-03-06T10:10:27;12.63;;;10.93;;
15155;SDS011;7678;50.058;8.306;2024-03-06T10:12:56;14.27;;;11.17;;
15155;SDS011;7678;50.058;8.306;2024-03-06T10:15:28;14.60;;;10.83;;
15155;SDS011;7678;50.058;8.306;2024-03-06T10:18:09;14.70;;;11.47;;
15155;SDS011;7678;50.058;8.306;2024-03-06T10:20:40;14.77;;;10.73;;
15155;SDS011;7678;50.058;8.306;2024-03-06T10:23:11;14.07;;;11.67;;
15155;SDS011;7678;50.058;8.306;2024-03-06T10:25:40;12.77;;;10.03;;
15155;SDS011;7678;50.058;8.306;2024-03-06T10:28:12;13.47;;;10.63;;
15155;SDS011;7678;50.058;8.306;2024-03-06T10:30:40;11.67;;;10.07;;
15155;SDS011;7678;50.058;8.306;2024-03-06T10:33:10;14.10;;;10.17;;
15155;SDS011;7678;50.058;8.306;2024-03-06T10:35:39;13.03;;;10.03;;
15155;SDS011;7678;50.058;8.306;2024-03-06T10:38:10;12.40;;;9.70;;
15155;SDS011;7678;50.058;8.306;2024-03-06T10:40:39;13.47;;;10.60;;
15155;SDS011;7678;50.058;8.306;2024-03-06T10:43:09;13.33;;;10.23;;
15155;SDS011;7678;50.058;8.306;2024-03-06T10:45:41;14.63;;;11.00;;
15155;SDS011;7678;50.058;8.306;2024-03-06T10:48:15;13.53;;;11.73;;
15155;SDS011;7678;50.058;8.306;2024-03-06T10:50:45;17.00;;;12.47;;
15155;SDS011;7678;50.058;8.306;2024-03-06T10:53:16;15.63;;;13.07;;
15155;SDS011;7678;50.058;8.306;2024-03-06T10:55:53;16.17;;;12.83;;
15155;SDS011;7678;50.058;8.306;2024-03-06T10:58:21;17.23;;;13.33;;
15155;SDS011;7678;50.058;8.306;2024-03-06T11:00:51;15.57;;;12.53;;
15155;SDS011;7678;50.058;8.306;2024-03-06T11:03:22;17.13;;;13.13;;
15155;SDS011;7678;50.058;8.306;2024-03-06T11:05:51;16.53;;;11.93;;
15155;SDS011;7678;50.058;8.306;2024-03-06T11:08:19;10.47;;;8.87;;
15155;SDS011;7678;50.058;8.306;2024-03-06T11:10:48;10.07;;;7.90;;
15155;SDS011;7678;50.058;8.306;2024-03-06T11:13:21;8.77;;;6.60;;
15155;SDS011;7678;50.058;8.306;2024-03-06T11:15:53;8.43;;;6.23;;
15155;SDS011;7678;50.058;8.306;2024-03-06T11:18:41;8.93;;;6.90;;
15155;SDS011;7678;50.058;8.306;2024-03-06T11:24:12;6.33;;;5.37;;
15155;SDS011;7678;50.058;8.306;2024-03-06T11:26:43;5.20;;;4.50;;
15155;SDS011;7678;50.058;8.306;2024-03-06T11:29:15;6.77;;;4.73;;
15155;SDS011;7678;50.058;8.306;2024-03-06T11:34:43;9.37;;;6.50;;
15155;SDS011;7678;50.058;8.306;2024-03-06T11:37:11;9.63;;;6.20;;
15155;SDS011;7678;50.058;8.306;2024-03-06T11:39:40;8.00;;;6.30;;
15155;SDS011;7678;50.058;8.306;2024-03-06T11:42:11;5.77;;;4.40;;
15155;SDS011;7678;50.058;8.306;2024-03-06T11:44:52;6.67;;;5.13;;
15155;SDS011;7678;50.058;8.306;2024-03-06T11:47:25;7.50;;;6.20;;
15155;SDS011;7678;50.058;8.306;2024-03-06T11:49:55;6.90;;;5.77;;
15155;SDS011;7678;50.058;8.306;2024-03-06T11:52:25;7.73;;;6.90;;
15155;SDS011;7678;50.058;8.306;2024-03-06T11:54:54;8.40;;;7.43;;
15155;SDS011;7678;50.058;8.306;2024-03-06T11:57:22;8.27;;;6.83;;
15155;SDS011;7678;50.058;8.306;2024-03-06T11:59:51;9.83;;;7.07;;
15155;SDS011;7678;50.058;8.306;2024-03-06T12:02:22;10.83;;;7.17;;
15155;SDS011;7678;50.058;8.306;2024-03-06T12:04:52;9.73;;;7.93;;
15155;SDS011;7678;50.058;8.306;2024-03-06T12:07:21;9.07;;;7.03;;
15155;SDS011;7678;50.058;8.306;2024-03-06T12:09:51;7.60;;;6.57;;
15155;SDS011;7678;50.058;8.306;2024-03-06T12:12:20;8.17;;;6.80;;
15155;SDS011;7678;50.058;8.306;2024-03-06T12:14:58;8.03;;;7.13;;
15155;SDS011;7678;50.058;8.306;2024-03-06T12:17:42;14.20;;;11.73;;
15155;SDS011;7678;50.058;8.306;2024-03-06T12:20:16;18.70;;;12.77;;
15155;SDS011;7678;50.058;8.306;2024-03-06T12:22:49;16.93;;;13.63;;
15155;SDS011;7678;50.058;8.306;2024-03-06T12:25:25;21.87;;;14.63;;
15155;SDS011;7678;50.058;8.306;2024-03-06T12:27:54;19.63;;;14.50;;
15155;SDS011;7678;50.058;8.306;2024-03-06T12:30:40;20.37;;;15.13;;
15155;SDS011;7678;50.058;8.306;2024-03-06T12:33:18;19.27;;;15.90;;
15155;SDS011;7678;50.058;8.306;2024-03-06T12:38:38;19.50;;;14.63;;
15155;SDS011;7678;50.058;8.306;2024-03-06T12:41:09;20.13;;;15.00;;
15155;SDS011;7678;50.058;8.306;2024-03-06T12:43:40;19.10;;;15.37;;
15155;SDS011;7678;50.058;8.306;2024-03-06T12:46:11;19.27;;;14.80;;
15155;SDS011;7678;50.058;8.306;2024-03-06T12:48:40;19.70;;;15.40;;
15155;SDS011;7678;50.058;8.306;2024-03-06T12:51:12;18.47;;;14.50;;
15155;SDS011;7678;50.058;8.306;2024-03-06T12:53:41;17.47;;;13.47;;
15155;SDS011;7678;50.058;8.306;2024-03-06T12:56:12;19.33;;;14.57;;
15155;SDS011;7678;50.058;8.306;2024-03-06T12:58:41;18.53;;;13.93;;
15155;SDS011;7678;50.058;8.306;2024-03-06T13:01:12;19.60;;;14.73;;
15155;SDS011;7678;50.058;8.306;2024-03-06T13:03:47;20.27;;;14.63;;
15155;SDS011;7678;50.058;8.306;2024-03-06T13:06:20;22.23;;;15.23;;
15155;SDS011;7678;50.058;8.306;2024-03-06T13:08:50;18.63;;;14.67;;
15155;SDS011;7678;50.058;8.306;2024-03-06T13:11:21;16.73;;;13.80;;
15155;SDS011;7678;50.058;8.306;2024-03-06T13:13:52;23.30;;;14.83;;
15155;SDS011;7678;50.058;8.306;2024-03-06T13:16:21;16.93;;;14.10;;
15155;SDS011;7678;50.058;8.306;2024-03-06T13:18:50;19.10;;;14.83;;
15155;SDS011;7678;50.058;8.306;2024-03-06T13:21:32;18.83;;;13.60;;
15155;SDS011;7678;50.058;8.306;2024-03-06T13:24:01;18.10;;;13.80;;
15155;SDS011;7678;50.058;8.306;2024-03-06T13:26:30;14.53;;;11.80;;
15155;SDS011;7678;50.058;8.306;2024-03-06T13:29:01;15.43;;;12.50;;
15155;SDS011;7678;50.058;8.306;2024-03-06T13:31:30;12.13;;;10.17;;
15155;SDS011;7678;50.058;8.306;2024-03-06T13:34:00;11.73;;;9.67;;
15155;SDS011;7678;50.058;8.306;2024-03-06T13:36:34;12.33;;;9.83;;
15155;SDS011;7678;50.058;8.306;2024-03-06T13:39:04;13.73;;;10.20;;
15155;SDS011;7678;50.058;8.306;2024-03-06T13:44:29;11.87;;;9.27;;
15155;SDS011;7678;50.058;8.306;2024-03-06T13:47:06;12.27;;;9.73;;
15155;SDS011;7678;50.058;8.306;2024-03-06T13:49:37;11.50;;;9.67;;
15155;SDS011;7678;50.058;8.306;2024-03-06T13:52:14;14.40;;;11.27;;
15155;SDS011;7678;50.058;8.306;2024-03-06T13:54:48;14.57;;;10.33;;
15155;SDS011;7678;50.058;8.306;2024-03-06T13:57:16;15.40;;;10.60;;
15155;SDS011;7678;50.058;8.306;2024-03-06T13:59:46;11.93;;;9.77;;
15155;SDS011;7678;50.058;8.306;2024-03-06T14:02:15;11.13;;;9.87;;
15155;SDS011;7678;50.058;8.306;2024-03-06T14:04:50;11.50;;;9.40;;
15155;SDS011;7678;50.058;8.306;2024-03-06T14:07:21;11.77;;;9.73;;
15155;SDS011;7678;50.058;8.306;2024-03-06T14:09:51;12.73;;;10.50;;
15155;SDS011;7678;50.058;8.306;2024-03-06T14:12:25;14.87;;;10.77;;
15155;SDS011;7678;50.058;8.306;2024-03-06T14:14:54;14.17;;;12.00;;
15155;SDS011;7678;50.058;8.306;2024-03-06T14:17:25;18.23;;;13.10;;
15155;SDS011;7678;50.058;8.306;2024-03-06T14:19:59;15.63;;;10.50;;
15155;SDS011;7678;50.058;8.306;2024-03-06T14:22:37;14.37;;;11.00;;
15155;SDS011;7678;50.058;8.306;2024-03-06T14:25:20;14.53;;;11.20;;
15155;SDS011;7678;50.058;8.306;2024-03-06T14:27:56;15.47;;;11.07;;
15155;SDS011;7678;50.058;8.306;2024-03-06T14:30:34;16.47;;;11.60;;
15155;SDS011;7678;50.058;8.306;2024-03-06T14:33:08;13.50;;;10.87;;
15155;SDS011;7678;50.058;8.306;2024-03-06T14:35:41;20.70;;;13.90;;
15155;SDS011;7678;50.058;8.306;2024-03-06T14:38:16;36.50;;;19.60;;
15155;SDS011;7678;50.058;8.306;2024-03-06T14:40:46;41.90;;;22.00;;
15155;SDS011;7678;50.058;8.306;2024-03-06T14:43:14;33.00;;;20.40;;
15155;SDS011;7678;50.058;8.306;2024-03-06T14:46:03;20.10;;;13.73;;
15155;SDS011;7678;50.058;8.306;2024-03-06T14:48:36;14.23;;;11.30;;
15155;SDS011;7678;50.058;8.306;2024-03-06T14:51:04;14.33;;;10.63;;
15155;SDS011;7678;50.058;8.306;2024-03-06T14:53:34;14.53;;;11.00;;
15155;SDS011;7678;50.058;8.306;2024-03-06T14:56:02;15.13;;;11.13;;
15155;SDS011;7678;50.058;8.306;2024-03-06T14:58:31;19.10;;;14.30;;
15155;SDS011;7678;50.058;8.306;2024-03-06T15:00:59;17.00;;;11.20;;
15155;SDS011;7678;50.058;8.306;2024-03-06T15:03:28;14.23;;;11.63;;
15155;SDS011;7678;50.058;8.306;2024-03-06T15:06:00;13.23;;;10.03;;
15155;SDS011;7678;50.058;8.306;2024-03-06T15:08:29;14.03;;;9.90;;
15155;SDS011;7678;50.058;8.306;2024-03-06T15:11:01;18.70;;;10.80;;
15155;SDS011;7678;50.058;8.306;2024-03-06T15:13:32;15.17;;;12.60;;
15155;SDS011;7678;50.058;8.306;2024-03-06T15:16:01;18.93;;;14.77;;
15155;SDS011;7678;50.058;8.306;2024-03-06T15:18:32;20.63;;;17.00;;
15155;SDS011;7678;50.058;8.306;2024-03-06T15:21:06;10.67;;;8.87;;
15155;SDS011;7678;50.058;8.306;2024-03-06T15:23:38;8.43;;;7.07;;